Martins, Brazil
Current Conditions -  °F | °C
As of 1:00 PM on Sunday 21 Dec 2014 (Local Time) from SBJU Reporting Station
Scattered Clouds Scattered Clouds  
Wind Chill: 91°   Ceiling: Unl
Heat Index: 95°   Visibility: 6mi
Dew Point: 68°   Wind: 8mph
Humidity: 46%   Direction: 110°ESE
Pressure: 30"   Gusts: NA
Location:  6.09°S, 37.91°W
Report Text: SBJU 211600Z 11007KT 9999 SCT022 33/20 Q1016
Loading
Personal Weather Stations






























Interactive Weather Map New forecast layout! Learn more

10-Day Weather Forecast

Advertisements
Track Severe Weather on mobile